Stockton, Georgia
Current Conditions -  °F | °C
As of 7:58 PM on Monday 20 Oct 2014 (Local Time) from KVAD Reporting Station
Scattered Clouds Scattered Clouds  
Wind Chill: 70°   Ceiling: Unl
Heat Index: 70°   Visibility: 10mi
Dew Point: 61°   Wind: 0mph
Humidity: 73%   Direction: NA
Pressure: 29.98"   Gusts: NA
Location:  30.94°N, 83°W
Report Text: KVAD 202358Z AUTO 00000KT 10SM FEW050 SCT220 21/16 A2998 RMK AO2 SLP154 T02110161 10277 20210 53000 $
Loading
Personal Weather Stations






























Interactive Weather Map
Tropical Storm Tracking
New forecast layout! Learn more

10-Day Weather Forecast

Advertisements
Track Severe Weather on mobile